sensor_id;sensor_type;location;lat;lon;timestamp;temperature;humidity
20492;DHT22;10404;51.468;6.762;2023-07-16T00:00:46;23.40;53.30
20492;DHT22;10404;51.468;6.762;2023-07-16T00:03:12;23.30;53.30
20492;DHT22;10404;51.468;6.762;2023-07-16T00:05:39;23.30;53.40
20492;DHT22;10404;51.468;6.762;2023-07-16T00:08:05;23.30;53.40
20492;DHT22;10404;51.468;6.762;2023-07-16T00:10:37;23.20;53.50
20492;DHT22;10404;51.468;6.762;2023-07-16T00:13:05;23.20;53.60
20492;DHT22;10404;51.468;6.762;2023-07-16T00:15:31;23.10;53.70
20492;DHT22;10404;51.468;6.762;2023-07-16T00:17:56;23.10;53.70
20492;DHT22;10404;51.468;6.762;2023-07-16T00:20:22;23.10;53.90
20492;DHT22;10404;51.468;6.762;2023-07-16T00:22:51;23.00;54.10
20492;DHT22;10404;51.468;6.762;2023-07-16T00:25:17;23.00;54.10
20492;DHT22;10404;51.468;6.762;2023-07-16T00:27:43;22.90;54.30
20492;DHT22;10404;51.468;6.762;2023-07-16T00:30:09;22.90;54.20
20492;DHT22;10404;51.468;6.762;2023-07-16T00:32:34;22.80;54.40
20492;DHT22;10404;51.468;6.762;2023-07-16T00:35:01;22.80;54.70
20492;DHT22;10404;51.468;6.762;2023-07-16T00:37:27;22.80;54.60
20492;DHT22;10404;51.468;6.762;2023-07-16T00:39:53;22.80;54.80
20492;DHT22;10404;51.468;6.762;2023-07-16T00:42:19;22.70;54.90
20492;DHT22;10404;51.468;6.762;2023-07-16T00:44:44;22.70;55.00
20492;DHT22;10404;51.468;6.762;2023-07-16T00:47:11;22.60;55.00
20492;DHT22;10404;51.468;6.762;2023-07-16T00:49:37;22.60;55.10
20492;DHT22;10404;51.468;6.762;2023-07-16T00:52:05;22.60;55.20
20492;DHT22;10404;51.468;6.762;2023-07-16T00:54:32;22.50;55.40
20492;DHT22;10404;51.468;6.762;2023-07-16T00:56:58;22.50;55.30
20492;DHT22;10404;51.468;6.762;2023-07-16T00:59:24;22.50;55.20
20492;DHT22;10404;51.468;6.762;2023-07-16T01:01:49;22.50;55.30
20492;DHT22;10404;51.468;6.762;2023-07-16T01:04:15;22.40;55.50
20492;DHT22;10404;51.468;6.762;2023-07-16T01:06:45;22.30;55.40
20492;DHT22;10404;51.468;6.762;2023-07-16T01:09:17;22.30;55.70
20492;DHT22;10404;51.468;6.762;2023-07-16T01:11:44;22.20;55.50
20492;DHT22;10404;51.468;6.762;2023-07-16T01:14:12;22.20;55.70
20492;DHT22;10404;51.468;6.762;2023-07-16T01:16:38;22.20;55.70
20492;DHT22;10404;51.468;6.762;2023-07-16T01:19:03;22.20;55.80
20492;DHT22;10404;51.468;6.762;2023-07-16T01:21:52;22.10;55.90
20492;DHT22;10404;51.468;6.762;2023-07-16T01:29:36;22.00;56.00
20492;DHT22;10404;51.468;6.762;2023-07-16T01:32:06;22.00;56.10
20492;DHT22;10404;51.468;6.762;2023-07-16T01:34:34;21.90;56.10
20492;DHT22;10404;51.468;6.762;2023-07-16T01:37:02;21.90;56.10
20492;DHT22;10404;51.468;6.762;2023-07-16T01:39:29;21.90;56.30
20492;DHT22;10404;51.468;6.762;2023-07-16T01:41:55;21.90;56.20
20492;DHT22;10404;51.468;6.762;2023-07-16T01:44:21;21.80;56.10
20492;DHT22;10404;51.468;6.762;2023-07-16T01:47:19;21.80;56.40
20492;DHT22;10404;51.468;6.762;2023-07-16T01:49:40;21.70;56.30
20492;DHT22;10404;51.468;6.762;2023-07-16T01:52:08;21.70;56.30
20492;DHT22;10404;51.468;6.762;2023-07-16T01:54:34;21.70;56.40
20492;DHT22;10404;51.468;6.762;2023-07-16T01:57:01;21.60;56.60
20492;DHT22;10404;51.468;6.762;2023-07-16T01:59:26;21.60;56.50
20492;DHT22;10404;51.468;6.762;2023-07-16T02:01:52;21.50;56.50
20492;DHT22;10404;51.468;6.762;2023-07-16T02:04:18;21.50;56.50
20492;DHT22;10404;51.468;6.762;2023-07-16T02:06:43;21.50;56.50
20492;DHT22;10404;51.468;6.762;2023-07-16T02:09:10;21.50;56.70
20492;DHT22;10404;51.468;6.762;2023-07-16T02:11:36;21.40;56.70
20492;DHT22;10404;51.468;6.762;2023-07-16T02:14:01;21.40;56.70
20492;DHT22;10404;51.468;6.762;2023-07-16T02:16:27;21.40;56.80
20492;DHT22;10404;51.468;6.762;2023-07-16T02:18:53;21.30;56.80
20492;DHT22;10404;51.468;6.762;2023-07-16T02:21:18;21.30;56.90
20492;DHT22;10404;51.468;6.762;2023-07-16T02:23:44;21.30;57.00
20492;DHT22;10404;51.468;6.762;2023-07-16T02:26:09;21.20;57.00
20492;DHT22;10404;51.468;6.762;2023-07-16T02:28:35;21.20;57.10
20492;DHT22;10404;51.468;6.762;2023-07-16T02:31:01;21.10;56.90
20492;DHT22;10404;51.468;6.762;2023-07-16T02:33:27;21.10;57.00
20492;DHT22;10404;51.468;6.762;2023-07-16T02:35:52;21.10;57.00
20492;DHT22;10404;51.468;6.762;2023-07-16T02:38:18;21.10;57.10
20492;DHT22;10404;51.468;6.762;2023-07-16T02:40:44;21.10;57.10
20492;DHT22;10404;51.468;6.762;2023-07-16T02:43:10;21.00;57.10
20492;DHT22;10404;51.468;6.762;2023-07-16T02:45:36;21.00;57.20
20492;DHT22;10404;51.468;6.762;2023-07-16T02:48:02;21.00;57.20
20492;DHT22;10404;51.468;6.762;2023-07-16T02:50:28;20.90;57.20
20492;DHT22;10404;51.468;6.762;2023-07-16T02:52:53;20.90;57.20
20492;DHT22;10404;51.468;6.762;2023-07-16T02:55:19;20.90;57.20
20492;DHT22;10404;51.468;6.762;2023-07-16T02:57:45;20.90;57.40
20492;DHT22;10404;51.468;6.762;2023-07-16T03:00:11;20.80;57.40
20492;DHT22;10404;51.468;6.762;2023-07-16T03:02:36;20.80;57.30
20492;DHT22;10404;51.468;6.762;2023-07-16T03:05:02;20.80;57.40
20492;DHT22;10404;51.468;6.762;2023-07-16T03:07:28;20.80;57.40
20492;DHT22;10404;51.468;6.762;2023-07-16T03:09:54;20.70;57.40
20492;DHT22;10404;51.468;6.762;2023-07-16T03:12:19;20.70;57.40
20492;DHT22;10404;51.468;6.762;2023-07-16T03:14:45;20.70;57.50
20492;DHT22;10404;51.468;6.762;2023-07-16T03:17:10;20.60;57.60
20492;DHT22;10404;51.468;6.762;2023-07-16T03:19:36;20.60;57.70
20492;DHT22;10404;51.468;6.762;2023-07-16T03:22:02;20.60;57.70
20492;DHT22;10404;51.468;6.762;2023-07-16T03:24:28;20.50;57.70
20492;DHT22;10404;51.468;6.762;2023-07-16T03:26:53;20.50;57.70
20492;DHT22;10404;51.468;6.762;2023-07-16T03:29:19;20.50;57.80
20492;DHT22;10404;51.468;6.762;2023-07-16T03:31:44;20.50;57.90
20492;DHT22;10404;51.468;6.762;2023-07-16T03:34:10;20.50;57.80
20492;DHT22;10404;51.468;6.762;2023-07-16T03:36:36;20.50;57.90
20492;DHT22;10404;51.468;6.762;2023-07-16T03:39:01;20.40;58.20
20492;DHT22;10404;51.468;6.762;2023-07-16T03:41:28;20.30;58.10
20492;DHT22;10404;51.468;6.762;2023-07-16T03:43:53;20.30;58.20
20492;DHT22;10404;51.468;6.762;2023-07-16T03:46:19;20.30;58.20
20492;DHT22;10404;51.468;6.762;2023-07-16T03:48:45;20.30;58.30
20492;DHT22;10404;51.468;6.762;2023-07-16T03:51:10;20.30;58.30
20492;DHT22;10404;51.468;6.762;2023-07-16T03:53:36;20.20;58.20
20492;DHT22;10404;51.468;6.762;2023-07-16T03:56:02;20.10;58.20
20492;DHT22;10404;51.468;6.762;2023-07-16T03:58:27;20.10;58.20
20492;DHT22;10404;51.468;6.762;2023-07-16T04:00:55;20.10;58.20
20492;DHT22;10404;51.468;6.762;2023-07-16T04:03:20;20.10;58.20
20492;DHT22;10404;51.468;6.762;2023-07-16T04:05:46;20.00;58.10
20492;DHT22;10404;51.468;6.762;2023-07-16T04:08:12;20.00;58.10
20492;DHT22;10404;51.468;6.762;2023-07-16T04:10:37;20.00;58.00
20492;DHT22;10404;51.468;6.762;2023-07-16T04:13:03;20.00;58.10
20492;DHT22;10404;51.468;6.762;2023-07-16T04:15:28;19.90;58.00
20492;DHT22;10404;51.468;6.762;2023-07-16T04:17:54;19.90;58.00
20492;DHT22;10404;51.468;6.762;2023-07-16T04:20:20;19.90;58.00
20492;DHT22;10404;51.468;6.762;2023-07-16T04:22:45;19.90;58.00
20492;DHT22;10404;51.468;6.762;2023-07-16T04:25:11;19.90;58.00
20492;DHT22;10404;51.468;6.762;2023-07-16T04:27:37;19.70;58.00
20492;DHT22;10404;51.468;6.762;2023-07-16T04:30:03;19.70;57.90
20492;DHT22;10404;51.468;6.762;2023-07-16T04:32:28;19.70;57.90
20492;DHT22;10404;51.468;6.762;2023-07-16T04:34:54;19.70;57.90
20492;DHT22;10404;51.468;6.762;2023-07-16T04:37:20;19.70;57.90
20492;DHT22;10404;51.468;6.762;2023-07-16T04:39:46;19.70;57.70
20492;DHT22;10404;51.468;6.762;2023-07-16T04:42:11;19.70;57.70
20492;DHT22;10404;51.468;6.762;2023-07-16T04:44:37;19.60;57.70
20492;DHT22;10404;51.468;6.762;2023-07-16T04:47:03;19.60;57.70
20492;DHT22;10404;51.468;6.762;2023-07-16T04:49:28;19.50;57.70
20492;DHT22;10404;51.468;6.762;2023-07-16T04:51:54;19.50;57.70
20492;DHT22;10404;51.468;6.762;2023-07-16T04:54:19;19.50;57.60
20492;DHT22;10404;51.468;6.762;2023-07-16T04:56:45;19.50;57.50
20492;DHT22;10404;51.468;6.762;2023-07-16T04:59:11;19.50;57.50
20492;DHT22;10404;51.468;6.762;2023-07-16T05:01:36;19.50;57.50
20492;DHT22;10404;51.468;6.762;2023-07-16T05:04:02;19.50;57.40
20492;DHT22;10404;51.468;6.762;2023-07-16T05:06:27;19.50;57.40
20492;DHT22;10404;51.468;6.762;2023-07-16T05:08:53;19.50;57.40
20492;DHT22;10404;51.468;6.762;2023-07-16T05:11:19;19.50;57.30
20492;DHT22;10404;51.468;6.762;2023-07-16T05:13:44;19.50;57.40
20492;DHT22;10404;51.468;6.762;2023-07-16T05:16:10;19.50;57.30
20492;DHT22;10404;51.468;6.762;2023-07-16T05:18:36;19.50;57.40
20492;DHT22;10404;51.468;6.762;2023-07-16T05:21:01;19.40;57.50
20492;DHT22;10404;51.468;6.762;2023-07-16T05:23:27;19.40;57.50
20492;DHT22;10404;51.468;6.762;2023-07-16T05:25:52;19.40;57.40
20492;DHT22;10404;51.468;6.762;2023-07-16T05:28:18;19.40;57.70
20492;DHT22;10404;51.468;6.762;2023-07-16T05:30:44;19.40;57.50
20492;DHT22;10404;51.468;6.762;2023-07-16T05:33:11;19.40;57.90
20492;DHT22;10404;51.468;6.762;2023-07-16T05:35:37;19.50;57.80
20492;DHT22;10404;51.468;6.762;2023-07-16T05:38:02;19.50;57.80
20492;DHT22;10404;51.468;6.762;2023-07-16T05:40:28;19.50;58.00
20492;DHT22;10404;51.468;6.762;2023-07-16T05:42:54;19.50;58.00
20492;DHT22;10404;51.468;6.762;2023-07-16T05:45:20;19.50;57.90
20492;DHT22;10404;51.468;6.762;2023-07-16T05:47:46;19.60;57.80
20492;DHT22;10404;51.468;6.762;2023-07-16T05:50:11;19.60;57.70
20492;DHT22;10404;51.468;6.762;2023-07-16T05:52:37;19.70;57.70
20492;DHT22;10404;51.468;6.762;2023-07-16T05:55:03;19.70;57.60
20492;DHT22;10404;51.468;6.762;2023-07-16T05:57:28;19.70;57.70
20492;DHT22;10404;51.468;6.762;2023-07-16T05:59:54;19.70;57.60
20492;DHT22;10404;51.468;6.762;2023-07-16T06:02:19;19.70;57.50
20492;DHT22;10404;51.468;6.762;2023-07-16T06:04:45;19.80;57.30
20492;DHT22;10404;51.468;6.762;2023-07-16T06:07:12;19.90;57.30
20492;DHT22;10404;51.468;6.762;2023-07-16T06:09:38;19.90;57.20
20492;DHT22;10404;51.468;6.762;2023-07-16T06:12:04;20.00;57.00
20492;DHT22;10404;51.468;6.762;2023-07-16T06:14:30;20.00;56.90
20492;DHT22;10404;51.468;6.762;2023-07-16T06:16:55;20.00;56.90
20492;DHT22;10404;51.468;6.762;2023-07-16T06:19:21;20.10;56.80
20492;DHT22;10404;51.468;6.762;2023-07-16T06:21:46;20.20;56.70
20492;DHT22;10404;51.468;6.762;2023-07-16T06:24:12;20.30;56.40
20492;DHT22;10404;51.468;6.762;2023-07-16T06:26:38;20.40;56.20
20492;DHT22;10404;51.468;6.762;2023-07-16T06:29:04;20.50;56.00
20492;DHT22;10404;51.468;6.762;2023-07-16T06:31:29;20.60;55.70
20492;DHT22;10404;51.468;6.762;2023-07-16T06:33:55;20.60;55.80
20492;DHT22;10404;51.468;6.762;2023-07-16T06:36:20;20.60;55.70
20492;DHT22;10404;51.468;6.762;2023-07-16T06:38:46;20.70;55.70
20492;DHT22;10404;51.468;6.762;2023-07-16T06:41:12;20.90;55.20
20492;DHT22;10404;51.468;6.762;2023-07-16T06:43:38;21.00;54.90
20492;DHT22;10404;51.468;6.762;2023-07-16T06:46:03;21.10;54.90
20492;DHT22;10404;51.468;6.762;2023-07-16T06:48:29;21.10;54.70
20492;DHT22;10404;51.468;6.762;2023-07-16T06:50:54;21.20;54.50
20492;DHT22;10404;51.468;6.762;2023-07-16T06:53:20;21.30;54.50
20492;DHT22;10404;51.468;6.762;2023-07-16T06:55:47;21.50;54.00
20492;DHT22;10404;51.468;6.762;2023-07-16T06:58:14;21.50;53.90
20492;DHT22;10404;51.468;6.762;2023-07-16T07:00:40;21.50;53.80
20492;DHT22;10404;51.468;6.762;2023-07-16T07:03:05;21.70;53.60
20492;DHT22;10404;51.468;6.762;2023-07-16T07:05:31;21.70;53.20
20492;DHT22;10404;51.468;6.762;2023-07-16T07:07:57;21.80;53.40
20492;DHT22;10404;51.468;6.762;2023-07-16T07:10:22;21.90;53.20
20492;DHT22;10404;51.468;6.762;2023-07-16T07:12:48;22.00;52.70
20492;DHT22;10404;51.468;6.762;2023-07-16T07:15:13;22.10;52.80
20492;DHT22;10404;51.468;6.762;2023-07-16T07:17:39;22.20;52.40
20492;DHT22;10404;51.468;6.762;2023-07-16T07:20:06;22.30;52.00
20492;DHT22;10404;51.468;6.762;2023-07-16T07:22:32;22.20;52.10
20492;DHT22;10404;51.468;6.762;2023-07-16T07:24:57;22.30;51.90
20492;DHT22;10404;51.468;6.762;2023-07-16T07:27:23;22.40;51.90
20492;DHT22;10404;51.468;6.762;2023-07-16T07:29:49;22.50;51.80
20492;DHT22;10404;51.468;6.762;2023-07-16T07:32:20;22.60;51.60
20492;DHT22;10404;51.468;6.762;2023-07-16T07:34:46;22.70;51.40
20492;DHT22;10404;51.468;6.762;2023-07-16T07:37:12;22.70;51.20
20492;DHT22;10404;51.468;6.762;2023-07-16T07:39:38;22.90;51.10
20492;DHT22;10404;51.468;6.762;2023-07-16T07:42:04;22.90;51.00
20492;DHT22;10404;51.468;6.762;2023-07-16T07:44:30;23.20;50.50
20492;DHT22;10404;51.468;6.762;2023-07-16T07:46:55;23.20;50.20
20492;DHT22;10404;51.468;6.762;2023-07-16T07:49:21;23.10;50.60
20492;DHT22;10404;51.468;6.762;2023-07-16T07:51:46;23.10;50.50
20492;DHT22;10404;51.468;6.762;2023-07-16T07:54:14;23.20;50.50
20492;DHT22;10404;51.468;6.762;2023-07-16T07:56:40;23.30;50.50
20492;DHT22;10404;51.468;6.762;2023-07-16T07:59:06;23.50;50.00
20492;DHT22;10404;51.468;6.762;2023-07-16T08:01:32;23.60;49.80
20492;DHT22;10404;51.468;6.762;2023-07-16T08:03:57;23.80;49.20
20492;DHT22;10404;51.468;6.762;2023-07-16T08:06:23;23.80;49.60
20492;DHT22;10404;51.468;6.762;2023-07-16T08:08:49;23.90;49.30
20492;DHT22;10404;51.468;6.762;2023-07-16T08:11:14;24.00;48.70
20492;DHT22;10404;51.468;6.762;2023-07-16T08:13:40;24.00;48.50
20492;DHT22;10404;51.468;6.762;2023-07-16T08:16:05;24.10;48.60
20492;DHT22;10404;51.468;6.762;2023-07-16T08:18:31;24.20;48.60
20492;DHT22;10404;51.468;6.762;2023-07-16T08:20:57;24.30;48.10
20492;DHT22;10404;51.468;6.762;2023-07-16T08:23:22;24.20;48.70
20492;DHT22;10404;51.468;6.762;2023-07-16T08:25:48;24.20;48.60
20492;DHT22;10404;51.468;6.762;2023-07-16T08:28:15;24.20;48.40
20492;DHT22;10404;51.468;6.762;2023-07-16T08:30:41;24.30;48.60
20492;DHT22;10404;51.468;6.762;2023-07-16T08:33:07;24.40;47.90
20492;DHT22;10404;51.468;6.762;2023-07-16T08:35:32;24.50;47.70
20492;DHT22;10404;51.468;6.762;2023-07-16T08:37:58;24.50;47.70
20492;DHT22;10404;51.468;6.762;2023-07-16T08:40:26;24.50;47.90
20492;DHT22;10404;51.468;6.762;2023-07-16T08:42:53;24.60;48.00
20492;DHT22;10404;51.468;6.762;2023-07-16T08:45:21;24.70;47.40
20492;DHT22;10404;51.468;6.762;2023-07-16T08:47:46;24.80;47.40
20492;DHT22;10404;51.468;6.762;2023-07-16T08:50:12;25.00;46.80
20492;DHT22;10404;51.468;6.762;2023-07-16T08:52:38;25.20;46.30
20492;DHT22;10404;51.468;6.762;2023-07-16T08:55:05;25.10;46.40
20492;DHT22;10404;51.468;6.762;2023-07-16T08:57:31;25.00;46.10
20492;DHT22;10404;51.468;6.762;2023-07-16T08:59:58;25.20;46.20
20492;DHT22;10404;51.468;6.762;2023-07-16T09:02:24;25.20;46.20
20492;DHT22;10404;51.468;6.762;2023-07-16T09:04:49;25.20;46.10
20492;DHT22;10404;51.468;6.762;2023-07-16T09:07:18;25.10;46.00
20492;DHT22;10404;51.468;6.762;2023-07-16T09:09:55;25.20;45.80
20492;DHT22;10404;51.468;6.762;2023-07-16T09:12:24;25.20;46.00
20492;DHT22;10404;51.468;6.762;2023-07-16T09:14:49;25.20;46.10
20492;DHT22;10404;51.468;6.762;2023-07-16T09:17:22;25.30;46.00
20492;DHT22;10404;51.468;6.762;2023-07-16T09:19:52;25.30;46.10
20492;DHT22;10404;51.468;6.762;2023-07-16T09:22:18;25.50;45.80
20492;DHT22;10404;51.468;6.762;2023-07-16T09:24:48;25.40;45.70
20492;DHT22;10404;51.468;6.762;2023-07-16T09:27:14;25.40;45.70
20492;DHT22;10404;51.468;6.762;2023-07-16T09:29:40;25.30;45.90
20492;DHT22;10404;51.468;6.762;2023-07-16T09:32:06;25.40;46.40
20492;DHT22;10404;51.468;6.762;2023-07-16T09:34:32;25.50;45.70
20492;DHT22;10404;51.468;6.762;2023-07-16T09:36:59;25.50;45.80
20492;DHT22;10404;51.468;6.762;2023-07-16T09:39:26;25.50;45.70
20492;DHT22;10404;51.468;6.762;2023-07-16T09:41:53;25.50;45.70
20492;DHT22;10404;51.468;6.762;2023-07-16T09:44:19;25.40;46.00
20492;DHT22;10404;51.468;6.762;2023-07-16T09:46:45;25.40;45.70
20492;DHT22;10404;51.468;6.762;2023-07-16T09:49:11;25.60;45.70
20492;DHT22;10404;51.468;6.762;2023-07-16T09:51:38;25.50;45.70
20492;DHT22;10404;51.468;6.762;2023-07-16T09:54:05;25.50;45.60
20492;DHT22;10404;51.468;6.762;2023-07-16T09:56:35;25.50;45.10
20492;DHT22;10404;51.468;6.762;2023-07-16T09:59:02;25.50;45.20
20492;DHT22;10404;51.468;6.762;2023-07-16T10:01:31;25.60;45.20
20492;DHT22;10404;51.468;6.762;2023-07-16T10:03:57;25.60;44.80
20492;DHT22;10404;51.468;6.762;2023-07-16T10:06:22;25.80;44.60
20492;DHT22;10404;51.468;6.762;2023-07-16T10:08:49;25.80;44.30
20492;DHT22;10404;51.468;6.762;2023-07-16T10:11:17;25.90;44.50
20492;DHT22;10404;51.468;6.762;2023-07-16T10:13:48;25.90;44.40
20492;DHT22;10404;51.468;6.762;2023-07-16T10:16:22;25.80;44.60
20492;DHT22;10404;51.468;6.762;2023-07-16T10:18:51;25.80;44.70
20492;DHT22;10404;51.468;6.762;2023-07-16T10:21:26;25.80;44.60
20492;DHT22;10404;51.468;6.762;2023-07-16T10:23:58;25.80;44.70
20492;DHT22;10404;51.468;6.762;2023-07-16T10:26:29;25.80;44.60
20492;DHT22;10404;51.468;6.762;2023-07-16T10:28:55;25.90;44.60
20492;DHT22;10404;51.468;6.762;2023-07-16T10:31:25;26.00;44.30
20492;DHT22;10404;51.468;6.762;2023-07-16T10:34:03;26.00;44.40
20492;DHT22;10404;51.468;6.762;2023-07-16T10:36:40;26.00;44.30
20492;DHT22;10404;51.468;6.762;2023-07-16T10:39:06;26.00;44.20
20492;DHT22;10404;51.468;6.762;2023-07-16T10:41:32;26.00;44.00
20492;DHT22;10404;51.468;6.762;2023-07-16T10:44:01;26.00;44.00
20492;DHT22;10404;51.468;6.762;2023-07-16T10:46:27;26.00;44.00
20492;DHT22;10404;51.468;6.762;2023-07-16T10:48:52;26.00;43.90
20492;DHT22;10404;51.468;6.762;2023-07-16T10:51:25;26.00;44.20
20492;DHT22;10404;51.468;6.762;2023-07-16T10:53:51;26.00;44.20
20492;DHT22;10404;51.468;6.762;2023-07-16T10:56:20;26.00;44.10
20492;DHT22;10404;51.468;6.762;2023-07-16T10:58:45;26.00;44.00
20492;DHT22;10404;51.468;6.762;2023-07-16T11:01:11;25.90;44.10
20492;DHT22;10404;51.468;6.762;2023-07-16T11:03:37;25.90;43.90
20492;DHT22;10404;51.468;6.762;2023-07-16T11:06:09;25.80;44.00
20492;DHT22;10404;51.468;6.762;2023-07-16T11:08:35;25.80;44.00
20492;DHT22;10404;51.468;6.762;2023-07-16T11:11:01;25.80;44.00
20492;DHT22;10404;51.468;6.762;2023-07-16T11:13:27;25.80;43.90
20492;DHT22;10404;51.468;6.762;2023-07-16T11:15:53;25.80;44.00
20492;DHT22;10404;51.468;6.762;2023-07-16T11:18:21;25.80;44.10
20492;DHT22;10404;51.468;6.762;2023-07-16T11:20:50;25.80;44.00
20492;DHT22;10404;51.468;6.762;2023-07-16T11:23:17;25.80;43.80
20492;DHT22;10404;51.468;6.762;2023-07-16T11:25:46;25.80;44.00
20492;DHT22;10404;51.468;6.762;2023-07-16T11:28:12;25.70;43.70
20492;DHT22;10404;51.468;6.762;2023-07-16T11:30:38;25.70;43.90
20492;DHT22;10404;51.468;6.762;2023-07-16T11:33:03;25.60;43.90
20492;DHT22;10404;51.468;6.762;2023-07-16T11:35:34;25.60;43.70
20492;DHT22;10404;51.468;6.762;2023-07-16T11:38:00;25.60;43.60
20492;DHT22;10404;51.468;6.762;2023-07-16T11:40:26;25.60;43.90
20492;DHT22;10404;51.468;6.762;2023-07-16T11:42:51;25.60;43.80
20492;DHT22;10404;51.468;6.762;2023-07-16T11:45:22;25.60;43.80
20492;DHT22;10404;51.468;6.762;2023-07-16T11:47:53;25.60;43.40
20492;DHT22;10404;51.468;6.762;2023-07-16T11:50:19;25.60;43.60
20492;DHT22;10404;51.468;6.762;2023-07-16T11:52:59;25.60;43.60
20492;DHT22;10404;51.468;6.762;2023-07-16T11:55:24;25.60;43.60
20492;DHT22;10404;51.468;6.762;2023-07-16T11:57:50;25.60;43.60
20492;DHT22;10404;51.468;6.762;2023-07-16T12:00:16;25.60;43.50
20492;DHT22;10404;51.468;6.762;2023-07-16T12:02:44;25.60;43.20
20492;DHT22;10404;51.468;6.762;2023-07-16T12:05:19;25.60;43.50
20492;DHT22;10404;51.468;6.762;2023-07-16T12:07:45;25.60;43.50
20492;DHT22;10404;51.468;6.762;2023-07-16T12:10:11;25.60;43.50
20492;DHT22;10404;51.468;6.762;2023-07-16T12:12:36;25.60;43.50
20492;DHT22;10404;51.468;6.762;2023-07-16T12:15:04;25.60;43.50
20492;DHT22;10404;51.468;6.762;2023-07-16T12:17:29;25.60;43.50
20492;DHT22;10404;51.468;6.762;2023-07-16T12:19:55;25.60;43.60
20492;DHT22;10404;51.468;6.762;2023-07-16T12:22:21;25.60;43.50
20492;DHT22;10404;51.468;6.762;2023-07-16T12:24:47;25.60;43.70
20492;DHT22;10404;51.468;6.762;2023-07-16T12:27:14;25.60;43.60
20492;DHT22;10404;51.468;6.762;2023-07-16T12:29:41;25.60;43.60
20492;DHT22;10404;51.468;6.762;2023-07-16T12:32:07;25.60;43.50
20492;DHT22;10404;51.468;6.762;2023-07-16T12:34:33;25.60;43.60
20492;DHT22;10404;51.468;6.762;2023-07-16T12:36:59;25.60;43.50
20492;DHT22;10404;51.468;6.762;2023-07-16T12:39:25;25.60;43.50
20492;DHT22;10404;51.468;6.762;2023-07-16T12:41:50;25.60;43.60
20492;DHT22;10404;51.468;6.762;2023-07-16T12:44:16;25.60;43.60
20492;DHT22;10404;51.468;6.762;2023-07-16T12:46:41;25.60;43.50
20492;DHT22;10404;51.468;6.762;2023-07-16T12:49:07;25.60;43.70
20492;DHT22;10404;51.468;6.762;2023-07-16T12:51:33;25.60;43.60
20492;DHT22;10404;51.468;6.762;2023-07-16T12:53:58;25.70;43.60
20492;DHT22;10404;51.468;6.762;2023-07-16T12:56:26;25.70;43.60
20492;DHT22;10404;51.468;6.762;2023-07-16T12:58:51;25.70;43.70
20492;DHT22;10404;51.468;6.762;2023-07-16T13:01:17;25.70;43.60
20492;DHT22;10404;51.468;6.762;2023-07-16T13:03:43;25.70;43.60
20492;DHT22;10404;51.468;6.762;2023-07-16T13:06:08;25.70;43.70
20492;DHT22;10404;51.468;6.762;2023-07-16T13:08:34;25.70;43.70
20492;DHT22;10404;51.468;6.762;2023-07-16T13:11:00;25.70;43.80
20492;DHT22;10404;51.468;6.762;2023-07-16T13:13:26;25.80;43.70
20492;DHT22;10404;51.468;6.762;2023-07-16T13:15:51;25.80;43.70
20492;DHT22;10404;51.468;6.762;2023-07-16T13:18:17;25.80;43.70
20492;DHT22;10404;51.468;6.762;2023-07-16T13:20:43;25.80;43.70
20492;DHT22;10404;51.468;6.762;2023-07-16T13:23:09;25.80;43.70
20492;DHT22;10404;51.468;6.762;2023-07-16T13:25:36;25.80;43.50
20492;DHT22;10404;51.468;6.762;2023-07-16T13:28:04;25.80;43.70
20492;DHT22;10404;51.468;6.762;2023-07-16T13:30:30;25.80;43.70
20492;DHT22;10404;51.468;6.762;2023-07-16T13:32:55;25.80;43.70
20492;DHT22;10404;51.468;6.762;2023-07-16T13:35:22;26.00;43.50
20492;DHT22;10404;51.468;6.762;2023-07-16T13:37:48;26.00;43.60
20492;DHT22;10404;51.468;6.762;2023-07-16T13:40:13;26.10;43.40
20492;DHT22;10404;51.468;6.762;2023-07-16T13:42:39;26.20;43.20
20492;DHT22;10404;51.468;6.762;2023-07-16T13:45:05;26.30;43.10
20492;DHT22;10404;51.468;6.762;2023-07-16T13:47:32;26.30;42.90
20492;DHT22;10404;51.468;6.762;2023-07-16T13:49:57;26.40;42.90
20492;DHT22;10404;51.468;6.762;2023-07-16T13:52:23;26.40;42.90
20492;DHT22;10404;51.468;6.762;2023-07-16T13:54:48;26.40;42.80
20492;DHT22;10404;51.468;6.762;2023-07-16T13:57:14;26.50;42.70
20492;DHT22;10404;51.468;6.762;2023-07-16T13:59:40;26.50;42.60
20492;DHT22;10404;51.468;6.762;2023-07-16T14:02:05;26.60;42.40
20492;DHT22;10404;51.468;6.762;2023-07-16T14:04:32;26.70;42.40
20492;DHT22;10404;51.468;6.762;2023-07-16T14:06:59;26.70;42.40
20492;DHT22;10404;51.468;6.762;2023-07-16T14:09:25;26.80;42.20
20492;DHT22;10404;51.468;6.762;2023-07-16T14:11:50;26.90;42.20
20492;DHT22;10404;51.468;6.762;2023-07-16T14:14:21;27.00;42.20
20492;DHT22;10404;51.468;6.762;2023-07-16T14:16:47;27.10;42.00
20492;DHT22;10404;51.468;6.762;2023-07-16T14:19:12;27.20;41.90
20492;DHT22;10404;51.468;6.762;2023-07-16T14:21:39;27.30;42.00
20492;DHT22;10404;51.468;6.762;2023-07-16T14:24:05;27.30;41.90
20492;DHT22;10404;51.468;6.762;2023-07-16T14:26:30;27.40;41.60
20492;DHT22;10404;51.468;6.762;2023-07-16T14:28:56;27.50;41.50
20492;DHT22;10404;51.468;6.762;2023-07-16T14:31:22;27.50;41.20
20492;DHT22;10404;51.468;6.762;2023-07-16T14:33:48;27.60;41.20
20492;DHT22;10404;51.468;6.762;2023-07-16T14:36:13;27.70;41.10
20492;DHT22;10404;51.468;6.762;2023-07-16T14:38:39;27.80;41.10
20492;DHT22;10404;51.468;6.762;2023-07-16T14:41:05;27.90;40.90
20492;DHT22;10404;51.468;6.762;2023-07-16T14:43:33;28.00;40.40
20492;DHT22;10404;51.468;6.762;2023-07-16T14:45:58;28.10;40.40
20492;DHT22;10404;51.468;6.762;2023-07-16T14:48:24;28.10;40.30
20492;DHT22;10404;51.468;6.762;2023-07-16T14:50:52;28.20;40.20
20492;DHT22;10404;51.468;6.762;2023-07-16T14:53:17;28.20;40.10
20492;DHT22;10404;51.468;6.762;2023-07-16T14:55:48;28.30;39.90
20492;DHT22;10404;51.468;6.762;2023-07-16T14:58:14;28.30;39.80
20492;DHT22;10404;51.468;6.762;2023-07-16T15:00:39;28.30;39.80
20492;DHT22;10404;51.468;6.762;2023-07-16T15:03:05;28.50;39.60
20492;DHT22;10404;51.468;6.762;2023-07-16T15:05:31;28.50;39.60
20492;DHT22;10404;51.468;6.762;2023-07-16T15:07:57;28.50;39.50
20492;DHT22;10404;51.468;6.762;2023-07-16T15:10:22;28.50;39.20
20492;DHT22;10404;51.468;6.762;2023-07-16T15:12:48;28.50;39.10
20492;DHT22;10404;51.468;6.762;2023-07-16T15:15:14;28.50;39.30
20492;DHT22;10404;51.468;6.762;2023-07-16T15:17:39;28.60;39.00
20492;DHT22;10404;51.468;6.762;2023-07-16T15:20:05;28.60;39.00
20492;DHT22;10404;51.468;6.762;2023-07-16T15:22:31;28.60;39.00
20492;DHT22;10404;51.468;6.762;2023-07-16T15:24:59;28.70;39.20
20492;DHT22;10404;51.468;6.762;2023-07-16T15:27:26;28.70;39.00
20492;DHT22;10404;51.468;6.762;2023-07-16T15:29:51;28.80;39.00